sensor_id;sensor_type;location;lat;lon;timestamp;P1;durP1;ratioP1;P2;durP2;ratioP2
27025;SDS011;14565;48.626;8.978;2024-01-10T00:01:47;22.20;;;8.50;;
27025;SDS011;14565;48.626;8.978;2024-01-10T00:04:13;15.07;;;6.88;;
27025;SDS011;14565;48.626;8.978;2024-01-10T00:06:41;22.88;;;7.68;;
27025;SDS011;14565;48.626;8.978;2024-01-10T00:09:07;18.17;;;7.60;;
27025;SDS011;14565;48.626;8.978;2024-01-10T00:11:34;17.38;;;7.53;;
27025;SDS011;14565;48.626;8.978;2024-01-10T00:14:00;21.05;;;9.05;;
27025;SDS011;14565;48.626;8.978;2024-01-10T00:16:28;19.02;;;7.88;;
27025;SDS011;14565;48.626;8.978;2024-01-10T00:18:54;17.40;;;7.70;;
27025;SDS011;14565;48.626;8.978;2024-01-10T00:21:20;20.48;;;9.05;;
27025;SDS011;14565;48.626;8.978;2024-01-10T00:23:46;20.90;;;8.15;;
27025;SDS011;14565;48.626;8.978;2024-01-10T00:26:12;20.80;;;8.90;;
27025;SDS011;14565;48.626;8.978;2024-01-10T00:28:38;18.00;;;8.27;;
27025;SDS011;14565;48.626;8.978;2024-01-10T00:31:04;19.00;;;8.43;;
27025;SDS011;14565;48.626;8.978;2024-01-10T00:33:30;22.65;;;9.30;;
27025;SDS011;14565;48.626;8.978;2024-01-10T00:35:56;22.70;;;8.90;;
27025;SDS011;14565;48.626;8.978;2024-01-10T00:38:22;18.80;;;8.27;;
27025;SDS011;14565;48.626;8.978;2024-01-10T00:40:48;20.42;;;8.30;;
27025;SDS011;14565;48.626;8.978;2024-01-10T00:43:14;23.23;;;9.27;;
27025;SDS011;14565;48.626;8.978;2024-01-10T00:45:40;23.10;;;9.10;;
27025;SDS011;14565;48.626;8.978;2024-01-10T00:48:06;19.38;;;9.00;;
27025;SDS011;14565;48.626;8.978;2024-01-10T00:50:32;23.27;;;9.95;;
27025;SDS011;14565;48.626;8.978;2024-01-10T00:52:58;22.17;;;9.60;;
27025;SDS011;14565;48.626;8.978;2024-01-10T00:55:24;22.10;;;10.23;;
27025;SDS011;14565;48.626;8.978;2024-01-10T00:57:50;23.83;;;10.00;;
27025;SDS011;14565;48.626;8.978;2024-01-10T01:00:16;22.27;;;10.20;;
27025;SDS011;14565;48.626;8.978;2024-01-10T01:02:42;23.90;;;10.88;;
27025;SDS011;14565;48.626;8.978;2024-01-10T01:05:08;26.10;;;10.10;;
27025;SDS011;14565;48.626;8.978;2024-01-10T01:07:36;22.45;;;10.48;;
27025;SDS011;14565;48.626;8.978;2024-01-10T01:10:02;26.30;;;10.32;;
27025;SDS011;14565;48.626;8.978;2024-01-10T01:12:28;21.20;;;9.95;;
27025;SDS011;14565;48.626;8.978;2024-01-10T01:14:54;22.25;;;10.68;;
27025;SDS011;14565;48.626;8.978;2024-01-10T01:17:20;27.70;;;11.68;;
27025;SDS011;14565;48.626;8.978;2024-01-10T01:19:46;27.70;;;11.07;;
27025;SDS011;14565;48.626;8.978;2024-01-10T01:22:12;28.35;;;11.35;;
27025;SDS011;14565;48.626;8.978;2024-01-10T01:24:38;29.92;;;12.10;;
27025;SDS011;14565;48.626;8.978;2024-01-10T01:27:04;32.67;;;12.63;;
27025;SDS011;14565;48.626;8.978;2024-01-10T01:29:30;28.63;;;11.60;;
27025;SDS011;14565;48.626;8.978;2024-01-10T01:31:56;24.40;;;11.13;;
27025;SDS011;14565;48.626;8.978;2024-01-10T01:34:22;28.85;;;11.95;;
27025;SDS011;14565;48.626;8.978;2024-01-10T01:36:48;23.42;;;11.77;;
27025;SDS011;14565;48.626;8.978;2024-01-10T01:39:16;26.75;;;11.77;;
27025;SDS011;14565;48.626;8.978;2024-01-10T01:41:42;24.98;;;11.68;;
27025;SDS011;14565;48.626;8.978;2024-01-10T01:44:08;24.63;;;11.38;;
27025;SDS011;14565;48.626;8.978;2024-01-10T01:46:34;27.92;;;11.23;;
27025;SDS011;14565;48.626;8.978;2024-01-10T01:49:01;29.52;;;12.43;;
27025;SDS011;14565;48.626;8.978;2024-01-10T01:51:27;23.38;;;11.48;;
27025;SDS011;14565;48.626;8.978;2024-01-10T01:53:54;27.07;;;11.80;;
27025;SDS011;14565;48.626;8.978;2024-01-10T01:56:20;29.17;;;11.88;;
27025;SDS011;14565;48.626;8.978;2024-01-10T01:58:46;25.17;;;11.23;;
27025;SDS011;14565;48.626;8.978;2024-01-10T02:01:13;25.40;;;11.32;;
27025;SDS011;14565;48.626;8.978;2024-01-10T02:03:39;26.77;;;12.30;;
27025;SDS011;14565;48.626;8.978;2024-01-10T02:06:06;25.20;;;12.05;;
27025;SDS011;14565;48.626;8.978;2024-01-10T02:08:32;26.80;;;11.20;;
27025;SDS011;14565;48.626;8.978;2024-01-10T02:11:02;22.83;;;11.80;;
27025;SDS011;14565;48.626;8.978;2024-01-10T02:13:28;24.73;;;11.20;;
27025;SDS011;14565;48.626;8.978;2024-01-10T02:15:55;21.65;;;9.82;;
27025;SDS011;14565;48.626;8.978;2024-01-10T02:18:21;24.33;;;11.38;;
27025;SDS011;14565;48.626;8.978;2024-01-10T02:20:47;24.83;;;10.18;;
27025;SDS011;14565;48.626;8.978;2024-01-10T02:23:13;23.75;;;11.18;;
27025;SDS011;14565;48.626;8.978;2024-01-10T02:25:40;22.38;;;10.25;;
27025;SDS011;14565;48.626;8.978;2024-01-10T02:28:06;23.15;;;10.27;;
27025;SDS011;14565;48.626;8.978;2024-01-10T02:33:00;19.95;;;9.90;;
27025;SDS011;14565;48.626;8.978;2024-01-10T02:35:26;22.92;;;10.23;;
27025;SDS011;14565;48.626;8.978;2024-01-10T02:37:52;19.75;;;8.85;;
27025;SDS011;14565;48.626;8.978;2024-01-10T02:40:19;28.33;;;9.97;;
27025;SDS011;14565;48.626;8.978;2024-01-10T02:42:45;21.00;;;9.15;;
27025;SDS011;14565;48.626;8.978;2024-01-10T02:45:11;27.52;;;9.98;;
27025;SDS011;14565;48.626;8.978;2024-01-10T02:47:37;24.20;;;10.27;;
27025;SDS011;14565;48.626;8.978;2024-01-10T02:50:04;21.05;;;9.45;;
27025;SDS011;14565;48.626;8.978;2024-01-10T02:52:30;24.00;;;9.35;;
27025;SDS011;14565;48.626;8.978;2024-01-10T02:54:56;23.13;;;10.55;;
27025;SDS011;14565;48.626;8.978;2024-01-10T02:57:22;22.33;;;9.70;;
27025;SDS011;14565;48.626;8.978;2024-01-10T02:59:48;22.23;;;9.02;;
27025;SDS011;14565;48.626;8.978;2024-01-10T03:02:14;20.50;;;9.00;;
27025;SDS011;14565;48.626;8.978;2024-01-10T03:04:41;20.50;;;9.40;;
27025;SDS011;14565;48.626;8.978;2024-01-10T03:07:07;21.00;;;8.98;;
27025;SDS011;14565;48.626;8.978;2024-01-10T03:09:33;19.92;;;9.65;;
27025;SDS011;14565;48.626;8.978;2024-01-10T03:11:59;21.30;;;9.13;;
27025;SDS011;14565;48.626;8.978;2024-01-10T03:14:25;22.70;;;9.95;;
27025;SDS011;14565;48.626;8.978;2024-01-10T03:16:51;22.27;;;9.93;;
27025;SDS011;14565;48.626;8.978;2024-01-10T03:19:18;21.08;;;9.18;;
27025;SDS011;14565;48.626;8.978;2024-01-10T03:21:44;22.17;;;8.98;;
27025;SDS011;14565;48.626;8.978;2024-01-10T03:24:10;20.27;;;9.68;;
27025;SDS011;14565;48.626;8.978;2024-01-10T03:26:36;20.80;;;9.45;;
27025;SDS011;14565;48.626;8.978;2024-01-10T03:29:02;20.63;;;9.25;;
27025;SDS011;14565;48.626;8.978;2024-01-10T03:31:28;23.05;;;10.38;;
27025;SDS011;14565;48.626;8.978;2024-01-10T03:33:57;23.15;;;10.77;;
27025;SDS011;14565;48.626;8.978;2024-01-10T03:36:24;20.77;;;9.77;;
27025;SDS011;14565;48.626;8.978;2024-01-10T03:38:50;21.35;;;9.55;;
27025;SDS011;14565;48.626;8.978;2024-01-10T03:41:16;19.80;;;9.40;;
27025;SDS011;14565;48.626;8.978;2024-01-10T03:43:43;24.27;;;10.65;;
27025;SDS011;14565;48.626;8.978;2024-01-10T03:46:09;24.25;;;9.85;;
27025;SDS011;14565;48.626;8.978;2024-01-10T03:48:36;21.65;;;9.85;;
27025;SDS011;14565;48.626;8.978;2024-01-10T03:51:03;23.13;;;9.90;;
27025;SDS011;14565;48.626;8.978;2024-01-10T03:53:30;27.15;;;10.02;;
27025;SDS011;14565;48.626;8.978;2024-01-10T03:55:56;24.92;;;10.20;;
27025;SDS011;14565;48.626;8.978;2024-01-10T03:58:23;19.85;;;9.48;;
27025;SDS011;14565;48.626;8.978;2024-01-10T04:00:51;24.13;;;10.63;;
27025;SDS011;14565;48.626;8.978;2024-01-10T04:03:17;24.15;;;8.82;;
27025;SDS011;14565;48.626;8.978;2024-01-10T04:05:43;24.05;;;9.27;;
27025;SDS011;14565;48.626;8.978;2024-01-10T04:08:09;20.67;;;10.20;;
27025;SDS011;14565;48.626;8.978;2024-01-10T04:10:35;21.70;;;9.80;;
27025;SDS011;14565;48.626;8.978;2024-01-10T04:13:01;28.15;;;10.30;;
27025;SDS011;14565;48.626;8.978;2024-01-10T04:15:27;24.08;;;10.60;;
27025;SDS011;14565;48.626;8.978;2024-01-10T04:17:53;21.80;;;9.88;;
27025;SDS011;14565;48.626;8.978;2024-01-10T04:20:19;26.70;;;10.40;;
27025;SDS011;14565;48.626;8.978;2024-01-10T04:22:45;22.63;;;10.02;;
27025;SDS011;14565;48.626;8.978;2024-01-10T04:25:12;22.80;;;9.95;;
27025;SDS011;14565;48.626;8.978;2024-01-10T04:27:38;21.42;;;10.40;;
27025;SDS011;14565;48.626;8.978;2024-01-10T04:30:04;27.52;;;10.52;;
27025;SDS011;14565;48.626;8.978;2024-01-10T04:32:30;24.60;;;11.07;;
27025;SDS011;14565;48.626;8.978;2024-01-10T04:34:56;24.88;;;11.20;;
27025;SDS011;14565;48.626;8.978;2024-01-10T04:37:22;24.55;;;10.85;;
27025;SDS011;14565;48.626;8.978;2024-01-10T04:39:48;22.92;;;10.75;;
27025;SDS011;14565;48.626;8.978;2024-01-10T04:42:15;27.65;;;11.63;;
27025;SDS011;14565;48.626;8.978;2024-01-10T04:44:41;26.17;;;12.23;;
27025;SDS011;14565;48.626;8.978;2024-01-10T04:47:07;22.88;;;10.75;;
27025;SDS011;14565;48.626;8.978;2024-01-10T04:49:33;25.45;;;11.05;;
27025;SDS011;14565;48.626;8.978;2024-01-10T04:51:59;26.75;;;11.27;;
27025;SDS011;14565;48.626;8.978;2024-01-10T04:54:25;23.27;;;10.35;;
27025;SDS011;14565;48.626;8.978;2024-01-10T04:56:51;26.52;;;10.70;;
27025;SDS011;14565;48.626;8.978;2024-01-10T04:59:17;29.27;;;12.07;;
27025;SDS011;14565;48.626;8.978;2024-01-10T05:01:43;25.58;;;10.65;;
27025;SDS011;14565;48.626;8.978;2024-01-10T05:04:09;27.20;;;10.90;;
27025;SDS011;14565;48.626;8.978;2024-01-10T05:06:35;23.33;;;10.85;;
27025;SDS011;14565;48.626;8.978;2024-01-10T05:09:01;26.20;;;10.85;;
27025;SDS011;14565;48.626;8.978;2024-01-10T05:11:27;24.13;;;11.35;;
27025;SDS011;14565;48.626;8.978;2024-01-10T05:13:53;23.73;;;10.38;;
27025;SDS011;14565;48.626;8.978;2024-01-10T05:16:19;29.38;;;11.30;;
27025;SDS011;14565;48.626;8.978;2024-01-10T05:18:46;24.02;;;11.70;;
27025;SDS011;14565;48.626;8.978;2024-01-10T05:21:12;23.90;;;11.57;;
27025;SDS011;14565;48.626;8.978;2024-01-10T05:23:38;22.23;;;10.50;;
27025;SDS011;14565;48.626;8.978;2024-01-10T05:26:05;27.95;;;12.13;;
27025;SDS011;14565;48.626;8.978;2024-01-10T05:28:31;27.33;;;11.98;;
27025;SDS011;14565;48.626;8.978;2024-01-10T05:30:58;27.63;;;12.20;;
27025;SDS011;14565;48.626;8.978;2024-01-10T05:33:24;27.25;;;12.52;;
27025;SDS011;14565;48.626;8.978;2024-01-10T05:35:50;27.10;;;11.60;;
27025;SDS011;14565;48.626;8.978;2024-01-10T05:38:16;26.63;;;12.70;;
27025;SDS011;14565;48.626;8.978;2024-01-10T05:40:42;25.00;;;11.65;;
27025;SDS011;14565;48.626;8.978;2024-01-10T05:43:08;24.90;;;11.57;;
27025;SDS011;14565;48.626;8.978;2024-01-10T05:45:37;28.75;;;11.68;;
27025;SDS011;14565;48.626;8.978;2024-01-10T05:48:03;25.98;;;12.35;;
27025;SDS011;14565;48.626;8.978;2024-01-10T05:50:31;28.75;;;12.55;;
27025;SDS011;14565;48.626;8.978;2024-01-10T05:52:57;25.25;;;12.43;;
27025;SDS011;14565;48.626;8.978;2024-01-10T05:55:23;25.50;;;11.68;;
27025;SDS011;14565;48.626;8.978;2024-01-10T05:57:49;31.05;;;12.18;;
27025;SDS011;14565;48.626;8.978;2024-01-10T06:00:15;25.35;;;11.82;;
27025;SDS011;14565;48.626;8.978;2024-01-10T06:02:42;24.05;;;11.10;;
27025;SDS011;14565;48.626;8.978;2024-01-10T06:05:09;27.42;;;12.18;;
27025;SDS011;14565;48.626;8.978;2024-01-10T06:07:35;28.02;;;11.02;;
27025;SDS011;14565;48.626;8.978;2024-01-10T06:10:02;26.50;;;11.52;;
27025;SDS011;14565;48.626;8.978;2024-01-10T06:12:28;26.35;;;11.65;;
27025;SDS011;14565;48.626;8.978;2024-01-10T06:14:54;25.58;;;12.20;;
27025;SDS011;14565;48.626;8.978;2024-01-10T06:17:20;30.55;;;12.77;;
27025;SDS011;14565;48.626;8.978;2024-01-10T06:19:46;31.67;;;13.30;;
27025;SDS011;14565;48.626;8.978;2024-01-10T06:22:12;32.90;;;12.65;;
27025;SDS011;14565;48.626;8.978;2024-01-10T06:24:39;31.00;;;12.43;;
27025;SDS011;14565;48.626;8.978;2024-01-10T06:27:08;27.30;;;12.35;;
27025;SDS011;14565;48.626;8.978;2024-01-10T06:29:34;32.65;;;12.30;;
27025;SDS011;14565;48.626;8.978;2024-01-10T06:32:01;23.30;;;10.73;;
27025;SDS011;14565;48.626;8.978;2024-01-10T06:34:27;30.48;;;12.35;;
27025;SDS011;14565;48.626;8.978;2024-01-10T06:36:53;31.58;;;11.68;;
27025;SDS011;14565;48.626;8.978;2024-01-10T06:39:19;26.10;;;11.98;;
27025;SDS011;14565;48.626;8.978;2024-01-10T06:41:46;29.25;;;11.65;;
27025;SDS011;14565;48.626;8.978;2024-01-10T06:44:12;24.88;;;11.43;;
27025;SDS011;14565;48.626;8.978;2024-01-10T06:46:38;25.95;;;10.88;;
27025;SDS011;14565;48.626;8.978;2024-01-10T06:49:04;30.42;;;13.38;;
27025;SDS011;14565;48.626;8.978;2024-01-10T06:51:32;28.23;;;12.00;;
27025;SDS011;14565;48.626;8.978;2024-01-10T06:53:58;25.58;;;11.30;;
27025;SDS011;14565;48.626;8.978;2024-01-10T06:56:33;31.25;;;12.25;;
27025;SDS011;14565;48.626;8.978;2024-01-10T06:59:00;34.42;;;14.90;;
27025;SDS011;14565;48.626;8.978;2024-01-10T07:01:26;33.38;;;14.60;;
27025;SDS011;14565;48.626;8.978;2024-01-10T07:03:53;28.90;;;12.52;;
27025;SDS011;14565;48.626;8.978;2024-01-10T07:06:22;28.48;;;12.00;;
27025;SDS011;14565;48.626;8.978;2024-01-10T07:08:48;31.52;;;11.88;;
27025;SDS011;14565;48.626;8.978;2024-01-10T07:11:15;27.58;;;12.95;;
27025;SDS011;14565;48.626;8.978;2024-01-10T07:13:41;31.45;;;12.77;;
27025;SDS011;14565;48.626;8.978;2024-01-10T07:16:08;26.35;;;11.98;;
27025;SDS011;14565;48.626;8.978;2024-01-10T07:18:34;27.45;;;12.90;;
27025;SDS011;14565;48.626;8.978;2024-01-10T07:21:00;30.77;;;14.52;;
27025;SDS011;14565;48.626;8.978;2024-01-10T07:23:26;33.35;;;13.70;;
27025;SDS011;14565;48.626;8.978;2024-01-10T07:25:52;126.05;;;38.22;;
27025;SDS011;14565;48.626;8.978;2024-01-10T07:28:19;97.63;;;31.85;;
27025;SDS011;14565;48.626;8.978;2024-01-10T07:30:45;157.75;;;49.47;;
27025;SDS011;14565;48.626;8.978;2024-01-10T07:33:11;105.65;;;36.25;;
27025;SDS011;14565;48.626;8.978;2024-01-10T07:35:37;33.10;;;17.38;;
27025;SDS011;14565;48.626;8.978;2024-01-10T07:38:04;26.20;;;12.85;;
27025;SDS011;14565;48.626;8.978;2024-01-10T07:40:32;25.73;;;11.32;;
27025;SDS011;14565;48.626;8.978;2024-01-10T07:42:58;28.55;;;12.48;;
27025;SDS011;14565;48.626;8.978;2024-01-10T07:45:24;25.50;;;11.80;;
27025;SDS011;14565;48.626;8.978;2024-01-10T07:47:50;27.63;;;12.00;;
27025;SDS011;14565;48.626;8.978;2024-01-10T07:50:16;23.90;;;11.88;;
27025;SDS011;14565;48.626;8.978;2024-01-10T07:52:44;31.02;;;13.73;;
27025;SDS011;14565;48.626;8.978;2024-01-10T07:55:13;39.15;;;14.05;;
27025;SDS011;14565;48.626;8.978;2024-01-10T07:57:39;26.60;;;12.38;;
27025;SDS011;14565;48.626;8.978;2024-01-10T08:00:08;27.52;;;12.50;;
27025;SDS011;14565;48.626;8.978;2024-01-10T08:02:35;28.75;;;12.85;;
27025;SDS011;14565;48.626;8.978;2024-01-10T08:05:02;37.42;;;15.88;;
27025;SDS011;14565;48.626;8.978;2024-01-10T08:07:33;41.88;;;22.55;;
27025;SDS011;14565;48.626;8.978;2024-01-10T08:10:02;34.35;;;15.60;;
27025;SDS011;14565;48.626;8.978;2024-01-10T08:12:28;28.92;;;13.15;;
27025;SDS011;14565;48.626;8.978;2024-01-10T08:14:54;28.30;;;12.25;;
27025;SDS011;14565;48.626;8.978;2024-01-10T08:17:20;33.65;;;14.05;;
27025;SDS011;14565;48.626;8.978;2024-01-10T08:19:46;33.45;;;13.68;;
27025;SDS011;14565;48.626;8.978;2024-01-10T08:22:12;28.55;;;12.07;;
27025;SDS011;14565;48.626;8.978;2024-01-10T08:24:38;27.67;;;13.68;;
27025;SDS011;14565;48.626;8.978;2024-01-10T08:27:04;27.65;;;13.05;;
27025;SDS011;14565;48.626;8.978;2024-01-10T08:29:30;27.50;;;12.27;;
27025;SDS011;14565;48.626;8.978;2024-01-10T08:31:56;23.27;;;11.63;;
27025;SDS011;14565;48.626;8.978;2024-01-10T08:34:23;23.95;;;12.20;;
27025;SDS011;14565;48.626;8.978;2024-01-10T08:36:49;25.45;;;11.68;;
27025;SDS011;14565;48.626;8.978;2024-01-10T08:39:16;24.35;;;11.80;;
27025;SDS011;14565;48.626;8.978;2024-01-10T08:41:42;27.33;;;12.65;;
27025;SDS011;14565;48.626;8.978;2024-01-10T08:44:12;28.20;;;12.50;;
27025;SDS011;14565;48.626;8.978;2024-01-10T08:46:38;27.80;;;12.90;;
27025;SDS011;14565;48.626;8.978;2024-01-10T08:49:04;30.45;;;13.60;;
27025;SDS011;14565;48.626;8.978;2024-01-10T08:51:30;31.63;;;13.52;;
27025;SDS011;14565;48.626;8.978;2024-01-10T08:53:56;30.45;;;13.35;;
27025;SDS011;14565;48.626;8.978;2024-01-10T08:56:23;33.47;;;14.57;;
27025;SDS011;14565;48.626;8.978;2024-01-10T08:58:49;33.35;;;15.05;;
27025;SDS011;14565;48.626;8.978;2024-01-10T09:01:15;29.52;;;14.40;;
27025;SDS011;14565;48.626;8.978;2024-01-10T09:03:41;33.38;;;14.32;;
27025;SDS011;14565;48.626;8.978;2024-01-10T09:06:07;36.40;;;14.73;;
27025;SDS011;14565;48.626;8.978;2024-01-10T09:08:34;36.03;;;15.48;;
27025;SDS011;14565;48.626;8.978;2024-01-10T09:11:00;31.77;;;14.32;;
27025;SDS011;14565;48.626;8.978;2024-01-10T09:13:26;33.00;;;14.55;;
27025;SDS011;14565;48.626;8.978;2024-01-10T09:15:52;32.58;;;14.52;;
27025;SDS011;14565;48.626;8.978;2024-01-10T09:18:19;30.65;;;15.23;;
27025;SDS011;14565;48.626;8.978;2024-01-10T09:20:45;28.05;;;14.90;;
27025;SDS011;14565;48.626;8.978;2024-01-10T09:23:11;36.88;;;16.63;;
27025;SDS011;14565;48.626;8.978;2024-01-10T09:25:37;32.13;;;15.50;;
27025;SDS011;14565;48.626;8.978;2024-01-10T09:28:06;37.45;;;15.65;;
27025;SDS011;14565;48.626;8.978;2024-01-10T09:30:32;34.58;;;16.15;;
27025;SDS011;14565;48.626;8.978;2024-01-10T09:32:59;38.25;;;16.23;;
27025;SDS011;14565;48.626;8.978;2024-01-10T09:35:25;31.50;;;14.73;;
27025;SDS011;14565;48.626;8.978;2024-01-10T09:37:51;32.20;;;14.70;;
27025;SDS011;14565;48.626;8.978;2024-01-10T09:40:18;33.63;;;15.02;;
27025;SDS011;14565;48.626;8.978;2024-01-10T09:42:47;33.72;;;15.65;;
27025;SDS011;14565;48.626;8.978;2024-01-10T09:45:16;32.42;;;14.80;;
27025;SDS011;14565;48.626;8.978;2024-01-10T09:47:43;32.58;;;14.93;;
27025;SDS011;14565;48.626;8.978;2024-01-10T09:50:11;29.88;;;14.02;;
27025;SDS011;14565;48.626;8.978;2024-01-10T09:52:41;28.38;;;13.07;;
27025;SDS011;14565;48.626;8.978;2024-01-10T09:55:07;29.65;;;13.43;;
27025;SDS011;14565;48.626;8.978;2024-01-10T09:57:34;28.05;;;13.63;;
27025;SDS011;14565;48.626;8.978;2024-01-10T10:00:01;30.20;;;13.73;;
27025;SDS011;14565;48.626;8.978;2024-01-10T10:02:29;26.73;;;13.00;;
27025;SDS011;14565;48.626;8.978;2024-01-10T10:07:26;24.90;;;13.45;;
27025;SDS011;14565;48.626;8.978;2024-01-10T10:09:52;30.23;;;12.82;;
27025;SDS011;14565;48.626;8.978;2024-01-10T10:12:21;28.60;;;13.45;;
27025;SDS011;14565;48.626;8.978;2024-01-10T10:14:47;33.95;;;14.77;;
27025;SDS011;14565;48.626;8.978;2024-01-10T10:17:17;28.77;;;13.73;;
27025;SDS011;14565;48.626;8.978;2024-01-10T10:19:43;26.48;;;14.23;;
27025;SDS011;14565;48.626;8.978;2024-01-10T10:22:10;30.58;;;14.63;;
27025;SDS011;14565;48.626;8.978;2024-01-10T10:24:36;28.25;;;13.75;;
27025;SDS011;14565;48.626;8.978;2024-01-10T10:27:08;30.80;;;14.63;;
27025;SDS011;14565;48.626;8.978;2024-01-10T10:29:37;34.70;;;14.73;;
27025;SDS011;14565;48.626;8.978;2024-01-10T10:32:05;29.48;;;13.63;;
27025;SDS011;14565;48.626;8.978;2024-01-10T10:34:32;29.25;;;14.15;;
27025;SDS011;14565;48.626;8.978;2024-01-10T10:36:58;25.73;;;14.38;;
27025;SDS011;14565;48.626;8.978;2024-01-10T10:39:24;30.30;;;14.73;;
27025;SDS011;14565;48.626;8.978;2024-01-10T10:41:50;29.15;;;13.93;;
27025;SDS011;14565;48.626;8.978;2024-01-10T10:44:19;27.52;;;13.05;;
27025;SDS011;14565;48.626;8.978;2024-01-10T10:46:52;29.35;;;14.55;;
27025;SDS011;14565;48.626;8.978;2024-01-10T10:49:23;28.48;;;14.77;;
27025;SDS011;14565;48.626;8.978;2024-01-10T10:51:53;29.08;;;14.40;;
27025;SDS011;14565;48.626;8.978;2024-01-10T10:54:20;29.65;;;14.13;;
27025;SDS011;14565;48.626;8.978;2024-01-10T10:56:47;30.35;;;14.27;;
27025;SDS011;14565;48.626;8.978;2024-01-10T10:59:14;30.10;;;15.30;;
27025;SDS011;14565;48.626;8.978;2024-01-10T11:01:41;31.10;;;14.60;;
27025;SDS011;14565;48.626;8.978;2024-01-10T11:04:09;31.30;;;14.55;;
27025;SDS011;14565;48.626;8.978;2024-01-10T11:06:36;29.95;;;14.57;;
27025;SDS011;14565;48.626;8.978;2024-01-10T11:09:04;29.83;;;16.10;;
27025;SDS011;14565;48.626;8.978;2024-01-10T11:25:26;28.85;;;14.43;;
27025;SDS011;14565;48.626;8.978;2024-01-10T11:27:54;28.23;;;14.27;;
27025;SDS011;14565;48.626;8.978;2024-01-10T11:30:33;30.15;;;13.85;;
27025;SDS011;14565;48.626;8.978;2024-01-10T11:49:10;29.73;;;14.85;;
27025;SDS011;14565;48.626;8.978;2024-01-10T11:51:38;29.83;;;14.63;;
27025;SDS011;14565;48.626;8.978;2024-01-10T11:54:06;28.75;;;14.63;;
27025;SDS011;14565;48.626;8.978;2024-01-10T11:56:42;30.02;;;15.05;;
27025;SDS011;14565;48.626;8.978;2024-01-10T11:59:10;30.10;;;15.53;;
27025;SDS011;14565;48.626;8.978;2024-01-10T12:01:37;27.60;;;14.50;;
27025;SDS011;14565;48.626;8.978;2024-01-10T12:04:03;34.13;;;16.17;;
27025;SDS011;14565;48.626;8.978;2024-01-10T12:06:34;28.23;;;13.68;;
27025;SDS011;14565;48.626;8.978;2024-01-10T12:09:02;29.10;;;14.10;;
27025;SDS011;14565;48.626;8.978;2024-01-10T12:11:36;28.40;;;15.23;;
27025;SDS011;14565;48.626;8.978;2024-01-10T12:14:06;30.13;;;14.95;;
27025;SDS011;14565;48.626;8.978;2024-01-10T12:16:33;28.02;;;14.60;;
27025;SDS011;14565;48.626;8.978;2024-01-10T12:18:59;34.00;;;16.05;;
27025;SDS011;14565;48.626;8.978;2024-01-10T12:21:25;32.75;;;14.48;;
27025;SDS011;14565;48.626;8.978;2024-01-10T12:23:50;26.52;;;13.65;;
27025;SDS011;14565;48.626;8.978;2024-01-10T12:26:19;35.13;;;15.45;;
27025;SDS011;14565;48.626;8.978;2024-01-10T12:28:54;37.47;;;16.25;;
27025;SDS011;14565;48.626;8.978;2024-01-10T12:31:21;32.55;;;14.75;;
27025;SDS011;14565;48.626;8.978;2024-01-10T12:33:48;28.80;;;13.77;;
27025;SDS011;14565;48.626;8.978;2024-01-10T12:36:14;28.77;;;13.90;;
27025;SDS011;14565;48.626;8.978;2024-01-10T12:38:43;27.33;;;13.48;;
27025;SDS011;14565;48.626;8.978;2024-01-10T12:41:09;31.10;;;14.48;;
27025;SDS011;14565;48.626;8.978;2024-01-10T12:43:36;26.67;;;14.18;;
27025;SDS011;14565;48.626;8.978;2024-01-10T12:46:06;28.73;;;14.80;;
27025;SDS011;14565;48.626;8.978;2024-01-10T12:48:33;27.65;;;15.27;;
27025;SDS011;14565;48.626;8.978;2024-01-10T12:51:02;28.95;;;13.95;;
27025;SDS011;14565;48.626;8.978;2024-01-10T12:53:31;27.27;;;14.40;;
27025;SDS011;14565;48.626;8.978;2024-01-10T12:56:01;26.73;;;14.23;;
27025;SDS011;14565;48.626;8.978;2024-01-10T12:58:27;28.13;;;14.15;;
27025;SDS011;14565;48.626;8.978;2024-01-10T13:00:54;27.73;;;14.43;;
27025;SDS011;14565;48.626;8.978;2024-01-10T13:03:20;26.25;;;14.93;;
27025;SDS011;14565;48.626;8.978;2024-01-10T13:05:46;26.58;;;14.70;;
27025;SDS011;14565;48.626;8.978;2024-01-10T13:08:12;29.48;;;15.20;;
27025;SDS011;14565;48.626;8.978;2024-01-10T13:10:38;33.00;;;15.35;;
27025;SDS011;14565;48.626;8.978;2024-01-10T13:13:04;32.28;;;15.35;;
27025;SDS011;14565;48.626;8.978;2024-01-10T13:15:30;32.55;;;15.80;;
27025;SDS011;14565;48.626;8.978;2024-01-10T13:17:56;34.55;;;16.50;;
27025;SDS011;14565;48.626;8.978;2024-01-10T13:20:23;32.65;;;15.85;;
27025;SDS011;14565;48.626;8.978;2024-01-10T13:22:52;30.75;;;15.82;;
27025;SDS011;14565;48.626;8.978;2024-01-10T13:25:18;32.97;;;16.73;;
27025;SDS011;14565;48.626;8.978;2024-01-10T13:27:48;33.25;;;16.67;;
27025;SDS011;14565;48.626;8.978;2024-01-10T13:30:15;33.90;;;17.30;;
27025;SDS011;14565;48.626;8.978;2024-01-10T13:32:42;35.70;;;16.73;;
27025;SDS011;14565;48.626;8.978;2024-01-10T13:35:08;33.63;;;15.88;;
27025;SDS011;14565;48.626;8.978;2024-01-10T13:37:34;32.10;;;15.38;;
27025;SDS011;14565;48.626;8.978;2024-01-10T13:40:00;32.13;;;16.75;;
27025;SDS011;14565;48.626;8.978;2024-01-10T13:42:25;32.00;;;16.33;;
27025;SDS011;14565;48.626;8.978;2024-01-10T13:44:51;29.83;;;15.65;;
27025;SDS011;14565;48.626;8.978;2024-01-10T13:47:17;30.63;;;15.98;;
27025;SDS011;14565;48.626;8.978;2024-01-10T13:49:43;30.63;;;14.93;;
27025;SDS011;14565;48.626;8.978;2024-01-10T13:52:09;32.75;;;15.25;;
27025;SDS011;14565;48.626;8.978;2024-01-10T13:54:35;30.17;;;15.18;;
27025;SDS011;14565;48.626;8.978;2024-01-10T13:57:01;33.58;;;16.58;;
27025;SDS011;14565;48.626;8.978;2024-01-10T13:59:28;31.58;;;15.48;;
27025;SDS011;14565;48.626;8.978;2024-01-10T14:01:53;29.25;;;16.05;;
27025;SDS011;14565;48.626;8.978;2024-01-10T14:04:20;31.75;;;17.33;;
27025;SDS011;14565;48.626;8.978;2024-01-10T14:06:46;35.55;;;16.65;;
27025;SDS011;14565;48.626;8.978;2024-01-10T14:09:12;35.90;;;16.85;;
27025;SDS011;14565;48.626;8.978;2024-01-10T14:11:38;32.92;;;16.45;;
27025;SDS011;14565;48.626;8.978;2024-01-10T14:14:03;30.95;;;16.77;;
27025;SDS011;14565;48.626;8.978;2024-01-10T14:16:29;30.38;;;15.90;;
27025;SDS011;14565;48.626;8.978;2024-01-10T14:18:54;37.58;;;17.38;;
27025;SDS011;14565;48.626;8.978;2024-01-10T14:21:21;34.35;;;16.38;;
27025;SDS011;14565;48.626;8.978;2024-01-10T14:23:47;34.55;;;16.95;;
27025;SDS011;14565;48.626;8.978;2024-01-10T14:26:13;33.05;;;17.27;;
27025;SDS011;14565;48.626;8.978;2024-01-10T14:28:40;33.45;;;16.48;;
27025;SDS011;14565;48.626;8.978;2024-01-10T14:31:06;31.33;;;15.48;;
27025;SDS011;14565;48.626;8.978;2024-01-10T14:33:32;30.63;;;15.57;;
27025;SDS011;14565;48.626;8.978;2024-01-10T14:35:58;32.17;;;16.67;;
27025;SDS011;14565;48.626;8.978;2024-01-10T14:38:25;33.05;;;17.40;;
27025;SDS011;14565;48.626;8.978;2024-01-10T14:40:50;34.90;;;17.25;;
27025;SDS011;14565;48.626;8.978;2024-01-10T14:43:16;31.80;;;16.58;;
27025;SDS011;14565;48.626;8.978;2024-01-10T14:45:43;36.63;;;17.45;;
27025;SDS011;14565;48.626;8.978;2024-01-10T14:48:09;37.08;;;16.30;;
27025;SDS011;14565;48.626;8.978;2024-01-10T14:50:35;29.58;;;15.73;;
27025;SDS011;14565;48.626;8.978;2024-01-10T14:53:01;36.13;;;16.75;;
27025;SDS011;14565;48.626;8.978;2024-01-10T14:55:27;36.30;;;16.27;;